createdAt,value
2017-08-25T00:00:52.098Z,18.16
2017-08-25T00:03:21.155Z,18.14
2017-08-25T00:05:50.226Z,18.12
2017-08-25T00:08:19.284Z,18.12
2017-08-25T00:10:48.354Z,18.07
2017-08-25T00:13:17.412Z,18.09
2017-08-25T00:15:46.486Z,18.12
2017-08-25T00:18:15.555Z,18.12
2017-08-25T00:20:44.607Z,18.14
2017-08-25T00:23:13.663Z,18.15
2017-08-25T00:25:42.748Z,18.15
2017-08-25T00:28:11.855Z,18.13
2017-08-25T00:30:40.915Z,18.07
2017-08-25T00:33:09.979Z,18.04
2017-08-25T00:35:39.043Z,17.99
2017-08-25T00:38:08.117Z,17.94
2017-08-25T00:40:37.188Z,17.92
2017-08-25T00:43:06.216Z,17.91
2017-08-25T00:45:35.289Z,17.86
2017-08-25T00:48:04.376Z,17.79
2017-08-25T00:50:33.421Z,17.75
2017-08-25T00:53:02.513Z,17.76
2017-08-25T00:55:31.584Z,17.75
2017-08-25T00:58:00.635Z,17.73
2017-08-25T01:00:29.699Z,17.75
2017-08-25T01:02:58.765Z,17.75
2017-08-25T01:05:28.110Z,17.76
2017-08-25T01:07:57.179Z,17.71
2017-08-25T01:10:26.268Z,17.63
2017-08-25T01:12:55.336Z,17.59
2017-08-25T01:15:24.883Z,17.54
2017-08-25T01:17:53.941Z,17.51
2017-08-25T01:20:23.004Z,17.48
2017-08-25T01:22:52.085Z,17.48
2017-08-25T01:25:22.076Z,17.48
2017-08-25T01:27:51.123Z,17.41
2017-08-25T01:30:20.183Z,17.39
2017-08-25T01:32:49.237Z,17.38
2017-08-25T01:35:18.705Z,17.37
2017-08-25T01:37:48.622Z,17.35
2017-08-25T01:40:17.728Z,17.35
2017-08-25T01:42:46.774Z,17.33
2017-08-25T01:45:15.858Z,17.34
2017-08-25T01:47:45.172Z,17.36
2017-08-25T01:50:14.602Z,17.39
2017-08-25T01:52:43.664Z,17.41
2017-08-25T01:55:12.959Z,17.44
2017-08-25T01:57:42.009Z,17.48
2017-08-25T02:00:11.136Z,17.47
2017-08-25T02:02:40.211Z,17.47
2017-08-25T02:05:09.390Z,17.48
2017-08-25T02:07:38.651Z,17.47
2017-08-25T02:10:07.703Z,17.40
2017-08-25T02:12:36.778Z,17.36
2017-08-25T02:15:05.855Z,17.35
2017-08-25T02:17:34.916Z,17.36
2017-08-25T02:20:04.003Z,17.33
2017-08-25T02:22:33.060Z,17.33
2017-08-25T02:25:02.165Z,17.31
2017-08-25T02:27:31.255Z,17.31
2017-08-25T02:30:00.317Z,17.34
2017-08-25T02:32:29.424Z,17.36
2017-08-25T02:34:58.774Z,17.34
2017-08-25T02:37:27.860Z,17.32
2017-08-25T02:39:56.907Z,17.33
2017-08-25T02:42:26.004Z,17.37
2017-08-25T02:44:55.397Z,17.37
2017-08-25T02:47:24.494Z,17.35
2017-08-25T02:49:53.583Z,17.34
2017-08-25T02:52:22.648Z,17.31
2017-08-25T02:54:51.703Z,17.28
2017-08-25T02:57:20.789Z,17.22
2017-08-25T02:59:49.873Z,17.20
2017-08-25T03:02:18.932Z,17.18
2017-08-25T03:04:48.007Z,17.13
2017-08-25T03:07:17.061Z,17.10
2017-08-25T03:09:46.164Z,17.07
2017-08-25T03:12:15.251Z,17.07
2017-08-25T03:14:44.343Z,17.07
2017-08-25T03:17:13.669Z,17.02
2017-08-25T03:19:42.697Z,16.98
2017-08-25T03:22:11.772Z,17.01
2017-08-25T03:24:40.835Z,16.99
2017-08-25T03:27:09.904Z,16.94
2017-08-25T03:29:38.988Z,16.92
2017-08-25T03:32:08.083Z,16.87
2017-08-25T03:34:37.142Z,16.86
2017-08-25T03:37:06.219Z,16.81
2017-08-25T03:39:35.289Z,16.82
2017-08-25T03:42:04.366Z,16.74
2017-08-25T03:44:33.419Z,16.70
2017-08-25T03:47:02.951Z,16.66
2017-08-25T03:49:31.996Z,16.61
2017-08-25T03:52:01.075Z,16.57
2017-08-25T03:54:30.410Z,16.53
2017-08-25T03:56:59.501Z,16.45
2017-08-25T03:59:28.905Z,16.40
2017-08-25T04:01:57.965Z,16.36
2017-08-25T04:04:27.040Z,16.35
2017-08-25T04:06:56.200Z,16.33
2017-08-25T04:09:25.255Z,16.29
2017-08-25T04:11:54.330Z,16.29
2017-08-25T04:14:23.684Z,16.26
2017-08-25T04:16:52.744Z,16.25
2017-08-25T04:19:21.824Z,16.20
2017-08-25T04:21:50.891Z,16.18
2017-08-25T04:24:19.948Z,16.11
2017-08-25T04:26:49.053Z,16.09
2017-08-25T04:29:18.103Z,16.07
2017-08-25T04:31:47.172Z,16.04
2017-08-25T04:34:16.231Z,16.01
2017-08-25T04:36:45.283Z,16.02
2017-08-25T04:39:14.343Z,16.01
2017-08-25T04:41:43.412Z,16.00
2017-08-25T04:44:12.487Z,15.99
2017-08-25T04:46:41.553Z,15.98
2017-08-25T04:49:10.611Z,15.95
2017-08-25T04:51:39.863Z,15.96
2017-08-25T04:54:08.980Z,15.98
2017-08-25T04:56:38.039Z,16.01
2017-08-25T04:59:07.128Z,16.03
2017-08-25T05:01:36.211Z,16.09
2017-08-25T05:04:05.292Z,16.10
2017-08-25T05:06:34.492Z,16.11
2017-08-25T05:09:03.556Z,16.17
2017-08-25T05:11:32.657Z,16.23
2017-08-25T05:14:01.715Z,16.28
2017-08-25T05:16:30.775Z,16.37
2017-08-25T05:18:59.844Z,16.45
2017-08-25T05:21:28.930Z,16.54
2017-08-25T05:23:57.983Z,16.58
2017-08-25T05:26:27.063Z,16.63
2017-08-25T05:28:56.108Z,16.66
2017-08-25T05:31:25.188Z,16.70
2017-08-25T05:33:54.407Z,16.76
2017-08-25T05:36:23.494Z,16.80
2017-08-25T05:38:52.566Z,16.84
2017-08-25T05:41:21.644Z,16.91
2017-08-25T05:43:51.459Z,16.95
2017-08-25T05:46:20.536Z,17.02
2017-08-25T05:48:49.629Z,17.01
2017-08-25T05:51:19.475Z,17.09
2017-08-25T05:53:48.523Z,17.09
2017-08-25T05:56:17.584Z,17.08
2017-08-25T05:58:46.643Z,17.09
2017-08-25T06:01:15.716Z,17.15
2017-08-25T06:03:44.796Z,17.20
2017-08-25T06:06:13.848Z,17.23
2017-08-25T06:08:42.919Z,17.30
2017-08-25T06:11:11.998Z,17.36
2017-08-25T06:13:41.069Z,17.40
2017-08-25T06:16:10.464Z,17.46
2017-08-25T06:18:39.544Z,17.50
2017-08-25T06:21:08.861Z,17.52
2017-08-25T06:23:37.950Z,17.54
2017-08-25T06:26:07.036Z,17.56
2017-08-25T06:28:36.129Z,17.61
2017-08-25T06:31:05.273Z,17.70
2017-08-25T06:33:34.319Z,17.79
2017-08-25T06:36:03.410Z,17.85
2017-08-25T06:38:32.443Z,17.92
2017-08-25T06:41:01.528Z,18.01
2017-08-25T06:43:30.887Z,18.05
2017-08-25T06:45:59.992Z,18.09
2017-08-25T06:48:29.349Z,18.17
2017-08-25T06:50:58.413Z,18.23
2017-08-25T06:53:27.468Z,18.28
2017-08-25T06:55:56.559Z,18.38
2017-08-25T06:58:25.611Z,18.44
2017-08-25T07:00:54.695Z,18.54
2017-08-25T07:03:23.753Z,18.65
2017-08-25T07:05:52.856Z,18.78
2017-08-25T07:08:21.900Z,18.84
2017-08-25T07:10:50.955Z,18.95
2017-08-25T07:13:20.022Z,19.04
2017-08-25T07:15:49.265Z,19.17
2017-08-25T07:18:18.336Z,19.33
2017-08-25T07:20:47.433Z,19.45
2017-08-25T07:23:16.492Z,19.55
2017-08-25T07:25:45.544Z,19.66
2017-08-25T07:28:14.623Z,19.80
2017-08-25T07:30:43.746Z,19.91
2017-08-25T07:33:12.822Z,20.00
2017-08-25T07:35:42.078Z,20.03
2017-08-25T07:38:11.152Z,20.10
2017-08-25T07:40:40.205Z,20.05
2017-08-25T07:43:09.276Z,20.17
2017-08-25T07:45:38.336Z,20.38
2017-08-25T07:48:07.424Z,20.58
2017-08-25T07:50:36.493Z,20.68
2017-08-25T07:53:05.565Z,20.75
2017-08-25T07:55:34.624Z,20.92
2017-08-25T07:58:03.720Z,20.96
2017-08-25T08:00:32.764Z,20.98
2017-08-25T08:03:01.836Z,20.99
2017-08-25T08:05:30.894Z,21.10
2017-08-25T08:07:59.942Z,21.18
2017-08-25T08:10:29.004Z,21.24
2017-08-25T08:12:58.090Z,21.20
2017-08-25T08:15:27.135Z,21.26
2017-08-25T08:17:56.254Z,21.39
2017-08-25T08:20:25.304Z,21.36
2017-08-25T08:22:54.376Z,21.46
2017-08-25T08:25:23.456Z,21.63
2017-08-25T08:27:52.552Z,21.68
2017-08-25T08:30:21.623Z,21.71
2017-08-25T08:32:50.687Z,21.80
2017-08-25T08:35:19.830Z,21.82
2017-08-25T08:37:48.924Z,21.92
2017-08-25T08:40:18.002Z,22.05
2017-08-25T08:42:47.032Z,22.21
2017-08-25T08:45:16.117Z,22.25
2017-08-25T08:47:45.199Z,22.36
2017-08-25T08:50:14.307Z,22.38
2017-08-25T08:52:43.331Z,22.37
2017-08-25T08:55:12.622Z,22.53
2017-08-25T08:57:41.679Z,22.74
2017-08-25T09:00:10.738Z,22.94
2017-08-25T09:02:39.792Z,22.99
2017-08-25T09:05:08.955Z,23.00
2017-08-25T09:07:38.021Z,23.06
2017-08-25T09:10:07.057Z,23.15
2017-08-25T09:12:36.124Z,23.21
2017-08-25T09:15:05.321Z,23.28
2017-08-25T09:17:34.375Z,23.28
2017-08-25T09:20:04.443Z,23.43
2017-08-25T09:22:33.513Z,23.57
2017-08-25T09:25:02.635Z,23.71
2017-08-25T09:27:31.748Z,23.73
2017-08-25T09:30:00.821Z,23.86
2017-08-25T09:32:29.886Z,23.77
2017-08-25T09:34:58.970Z,23.74
2017-08-25T09:37:28.062Z,23.89
2017-08-25T09:39:57.104Z,23.96
2017-08-25T09:42:26.153Z,24.00
2017-08-25T09:44:55.213Z,24.04
2017-08-25T09:47:24.316Z,24.00
2017-08-25T09:49:53.395Z,24.00
2017-08-25T09:52:22.432Z,23.94
2017-08-25T09:54:51.507Z,23.99
2017-08-25T09:57:20.569Z,24.09
2017-08-25T09:59:49.640Z,24.26
2017-08-25T10:02:18.693Z,24.45
2017-08-25T10:04:48.606Z,24.66
2017-08-25T10:07:17.686Z,24.70
2017-08-25T10:09:46.760Z,24.80
2017-08-25T10:12:15.808Z,24.76
2017-08-25T10:14:44.896Z,24.66
2017-08-25T10:17:14.213Z,24.69
2017-08-25T10:19:43.254Z,24.84
2017-08-25T10:22:12.356Z,24.91
2017-08-25T10:24:41.393Z,24.95
2017-08-25T10:27:10.443Z,25.03
2017-08-25T10:29:39.521Z,25.03
2017-08-25T10:32:08.564Z,24.93
2017-08-25T10:34:55.325Z,24.93
2017-08-25T10:37:42.310Z,24.86
2017-08-25T10:40:29.233Z,24.74
2017-08-25T10:43:16.266Z,24.57
2017-08-25T10:45:45.352Z,24.18
2017-08-25T10:48:14.395Z,24.01
2017-08-25T10:50:43.434Z,23.96
2017-08-25T10:53:12.536Z,23.90
2017-08-25T10:55:41.597Z,23.75
2017-08-25T10:58:10.718Z,23.75
2017-08-25T11:00:39.769Z,23.81
2017-08-25T11:03:08.928Z,23.95
2017-08-25T11:05:37.980Z,23.85
2017-08-25T11:08:08.313Z,23.80
2017-08-25T11:10:37.362Z,23.73
2017-08-25T11:13:07.965Z,23.73
2017-08-25T11:15:37.002Z,23.83
2017-08-25T11:18:06.077Z,23.88
2017-08-25T11:20:35.144Z,23.77
2017-08-25T11:23:04.689Z,23.73
2017-08-25T11:25:33.754Z,23.78
2017-08-25T11:28:02.808Z,23.88
2017-08-25T11:30:31.884Z,23.94
2017-08-25T11:33:00.945Z,23.99
2017-08-25T11:35:29.988Z,23.96
2017-08-25T11:37:59.043Z,24.04
2017-08-25T11:40:28.115Z,24.15
2017-08-25T11:42:57.189Z,24.33
2017-08-25T11:45:26.252Z,24.37
2017-08-25T11:47:55.324Z,24.33
2017-08-25T11:50:24.367Z,24.29
2017-08-25T11:52:53.428Z,24.30
2017-08-25T11:55:22.493Z,24.22
2017-08-25T11:57:51.558Z,24.14
2017-08-25T12:00:20.659Z,24.04
2017-08-25T12:02:49.770Z,24.01
2017-08-25T12:05:18.895Z,24.12
2017-08-25T12:07:47.984Z,24.09
2017-08-25T12:10:17.453Z,24.10
2017-08-25T12:12:46.510Z,24.15
2017-08-25T12:15:15.927Z,24.24
2017-08-25T12:17:45.757Z,24.29
2017-08-25T12:20:14.834Z,24.35
2017-08-25T12:22:43.903Z,24.44
2017-08-25T12:25:12.991Z,24.37
2017-08-25T12:27:42.045Z,24.41
2017-08-25T12:30:11.122Z,24.40
2017-08-25T12:32:40.194Z,24.33
2017-08-25T12:35:09.265Z,24.18
2017-08-25T12:37:38.316Z,24.09
2017-08-25T12:40:07.400Z,24.19
2017-08-25T12:42:36.514Z,24.31
2017-08-25T12:45:05.918Z,24.45
2017-08-25T12:47:34.937Z,24.52
2017-08-25T12:50:04.037Z,24.67
2017-08-25T12:52:33.092Z,24.83
2017-08-25T12:55:02.131Z,25.04
2017-08-25T12:57:31.292Z,25.06
2017-08-25T13:00:00.355Z,24.99
2017-08-25T13:02:29.433Z,24.94
2017-08-25T13:04:58.492Z,24.90
2017-08-25T13:07:27.548Z,24.81
2017-08-25T13:09:56.595Z,24.80
2017-08-25T13:12:25.668Z,24.79
2017-08-25T13:14:54.760Z,24.88
2017-08-25T13:17:23.846Z,24.92
2017-08-25T13:19:52.911Z,25.02
2017-08-25T13:22:21.998Z,25.12
2017-08-25T13:24:51.047Z,25.07
2017-08-25T13:27:20.312Z,25.09
2017-08-25T13:29:49.375Z,25.09
2017-08-25T13:32:18.440Z,24.98
2017-08-25T13:34:47.495Z,24.91
2017-08-25T13:37:16.567Z,24.89
2017-08-25T13:39:45.634Z,24.96
2017-08-25T13:42:14.701Z,24.97
2017-08-25T13:44:43.768Z,24.84
2017-08-25T13:47:12.868Z,24.85
2017-08-25T13:49:41.931Z,24.81
2017-08-25T13:52:10.993Z,24.74
2017-08-25T13:54:40.072Z,24.81
2017-08-25T13:57:09.118Z,24.80
2017-08-25T13:59:38.205Z,24.85
2017-08-25T14:02:07.267Z,24.92
2017-08-25T14:04:36.384Z,24.99
2017-08-25T14:07:05.646Z,25.09
2017-08-25T14:09:34.767Z,25.22
2017-08-25T14:12:03.783Z,25.31
2017-08-25T14:14:32.859Z,25.18
2017-08-25T14:17:01.927Z,25.02
2017-08-25T14:19:31.044Z,25.06
2017-08-25T14:22:00.120Z,25.04
2017-08-25T14:24:29.191Z,25.04
2017-08-25T14:26:58.263Z,25.05
2017-08-25T14:29:27.337Z,25.01
2017-08-25T14:31:56.400Z,25.07
2017-08-25T14:34:25.454Z,25.08
2017-08-25T14:36:54.491Z,25.05
2017-08-25T14:39:23.568Z,25.09
2017-08-25T14:41:52.617Z,25.03
2017-08-25T14:44:21.980Z,24.95
2017-08-25T14:46:51.058Z,24.90
2017-08-25T14:49:20.091Z,24.85
2017-08-25T14:51:49.167Z,24.84
2017-08-25T14:54:18.224Z,24.81
2017-08-25T14:56:47.308Z,24.81
2017-08-25T14:59:16.385Z,24.81
2017-08-25T15:01:45.436Z,24.75
2017-08-25T15:04:14.536Z,24.71
2017-08-25T15:06:43.713Z,24.62
2017-08-25T15:09:12.746Z,24.56
2017-08-25T15:11:41.819Z,24.49
2017-08-25T15:14:10.878Z,24.46
2017-08-25T15:16:39.932Z,24.46
2017-08-25T15:19:09.003Z,24.51
2017-08-25T15:21:38.081Z,24.50
2017-08-25T15:24:07.330Z,24.44
2017-08-25T15:26:36.403Z,24.37
2017-08-25T15:29:05.497Z,24.31
2017-08-25T15:31:34.543Z,24.25
2017-08-25T15:34:03.712Z,24.24
2017-08-25T15:36:32.825Z,24.22
2017-08-25T15:39:01.915Z,24.22
2017-08-25T15:41:30.980Z,24.24
2017-08-25T15:44:00.044Z,24.26
2017-08-25T15:46:29.109Z,24.28
2017-08-25T15:48:58.168Z,24.24
2017-08-25T15:51:27.246Z,24.13
2017-08-25T15:53:56.300Z,24.14
2017-08-25T15:56:25.365Z,24.14
2017-08-25T15:58:54.419Z,24.15
2017-08-25T16:01:23.468Z,24.12
2017-08-25T16:03:52.555Z,24.08
2017-08-25T16:06:21.634Z,24.10
2017-08-25T16:08:50.706Z,24.03
2017-08-25T16:11:19.767Z,24.00
2017-08-25T16:13:48.824Z,23.97
2017-08-25T16:16:17.879Z,23.98
2017-08-25T16:18:46.965Z,23.99
2017-08-25T16:21:16.045Z,23.95
2017-08-25T16:23:45.132Z,23.99
2017-08-25T16:26:14.176Z,23.95
2017-08-25T16:28:44.171Z,23.93
2017-08-25T16:31:13.234Z,24.02
2017-08-25T16:33:42.282Z,24.00
2017-08-25T16:36:11.361Z,23.98
2017-08-25T16:38:40.617Z,24.03
2017-08-25T16:41:09.684Z,24.04
2017-08-25T16:43:38.837Z,24.02
2017-08-25T16:46:07.906Z,23.95
2017-08-25T16:48:36.967Z,23.86
2017-08-25T16:51:06.012Z,23.83
2017-08-25T16:53:35.100Z,23.77
2017-08-25T16:56:04.148Z,23.78
2017-08-25T16:58:33.203Z,23.74
2017-08-25T17:01:02.362Z,23.72
2017-08-25T17:03:31.733Z,23.70
2017-08-25T17:06:00.858Z,23.74
2017-08-25T17:08:29.888Z,23.69
2017-08-25T17:10:58.965Z,23.69
2017-08-25T17:13:28.028Z,23.63
2017-08-25T17:15:57.276Z,23.60
2017-08-25T17:18:26.348Z,23.57
2017-08-25T17:20:55.433Z,23.52
2017-08-25T17:23:24.528Z,23.51
2017-08-25T17:25:53.619Z,23.45
2017-08-25T17:28:22.661Z,23.47
2017-08-25T17:30:51.884Z,23.43
2017-08-25T17:33:20.955Z,23.44
2017-08-25T17:35:50.008Z,23.44
2017-08-25T17:38:19.060Z,23.39
2017-08-25T17:40:48.128Z,23.35
2017-08-25T17:43:17.171Z,23.34
2017-08-25T17:45:46.246Z,23.32
2017-08-25T17:48:15.292Z,23.35
2017-08-25T17:50:44.389Z,23.30
2017-08-25T17:53:13.462Z,23.28
2017-08-25T17:55:42.546Z,23.23
2017-08-25T17:58:11.604Z,23.20
2017-08-25T18:00:40.672Z,23.14
2017-08-25T18:03:09.760Z,23.11
2017-08-25T18:05:38.848Z,23.10
2017-08-25T18:08:07.947Z,23.06
2017-08-25T18:10:36.990Z,23.00
2017-08-25T18:13:06.133Z,22.90
2017-08-25T18:15:35.199Z,22.83
2017-08-25T18:18:04.272Z,22.78
2017-08-25T18:20:33.344Z,22.71
2017-08-25T18:23:02.427Z,22.72
2017-08-25T18:25:31.453Z,22.70
2017-08-25T18:28:00.523Z,22.64
2017-08-25T18:30:29.597Z,22.58
2017-08-25T18:32:58.665Z,22.53
2017-08-25T18:35:27.726Z,22.50
2017-08-25T18:37:56.799Z,22.42
2017-08-25T18:40:25.869Z,22.40
2017-08-25T18:42:54.964Z,22.37
2017-08-25T18:45:24.132Z,22.35
2017-08-25T18:47:53.196Z,22.26
2017-08-25T18:50:22.364Z,22.27
2017-08-25T18:52:51.435Z,22.25
2017-08-25T18:55:20.556Z,22.21
2017-08-25T18:57:49.584Z,22.20
2017-08-25T19:00:18.750Z,22.19
2017-08-25T19:02:48.017Z,22.17
2017-08-25T19:05:17.731Z,22.16
2017-08-25T19:07:46.841Z,22.14
2017-08-25T19:10:15.951Z,22.15
2017-08-25T19:12:45.024Z,22.16
2017-08-25T19:15:14.081Z,22.18
2017-08-25T19:17:43.189Z,22.21
2017-08-25T19:20:12.301Z,22.24
2017-08-25T19:22:41.348Z,22.20
2017-08-25T19:25:10.532Z,22.21
2017-08-25T19:27:39.619Z,22.25
2017-08-25T19:30:08.653Z,22.31
2017-08-25T19:32:37.720Z,22.34
2017-08-25T19:35:06.784Z,22.34
2017-08-25T19:37:35.888Z,22.36
2017-08-25T19:40:04.919Z,22.41
2017-08-25T19:42:33.981Z,22.46
2017-08-25T19:45:03.085Z,22.50
2017-08-25T19:47:32.948Z,22.52
2017-08-25T19:50:02.156Z,22.57
2017-08-25T19:52:31.239Z,22.56
2017-08-25T19:55:00.356Z,22.56
2017-08-25T19:57:29.446Z,22.52
2017-08-25T19:59:58.569Z,22.41
2017-08-25T20:02:27.638Z,22.37
2017-08-25T20:04:56.733Z,22.33
2017-08-25T20:07:25.823Z,22.29
2017-08-25T20:09:54.877Z,22.27
2017-08-25T20:12:23.927Z,22.24
2017-08-25T20:14:52.987Z,22.22
2017-08-25T20:17:22.064Z,22.13
2017-08-25T20:19:51.116Z,22.09
2017-08-25T20:22:20.198Z,22.10
2017-08-25T20:24:49.306Z,22.14
2017-08-25T20:27:18.472Z,22.14
2017-08-25T20:29:47.565Z,22.15
2017-08-25T20:32:16.691Z,22.09
2017-08-25T20:34:45.786Z,22.03
2017-08-25T20:37:15.047Z,21.98
2017-08-25T20:39:44.107Z,21.96
2017-08-25T20:42:13.197Z,21.90
2017-08-25T20:44:42.504Z,21.88
2017-08-25T20:47:12.091Z,21.87
2017-08-25T20:49:41.485Z,21.85
2017-08-25T20:52:11.624Z,21.79
2017-08-25T20:54:40.739Z,21.75
2017-08-25T20:57:09.943Z,21.77
2017-08-25T20:59:39.134Z,21.81
2017-08-25T21:02:08.206Z,21.79
2017-08-25T21:04:38.459Z,21.82
2017-08-25T21:07:07.537Z,21.81
2017-08-25T21:09:36.635Z,21.71
2017-08-25T21:12:05.829Z,21.69
2017-08-25T21:14:34.869Z,21.63
2017-08-25T21:17:04.019Z,21.54
2017-08-25T21:19:33.057Z,21.55
2017-08-25T21:22:02.121Z,21.57
2017-08-25T21:24:31.349Z,21.55
2017-08-25T21:27:00.391Z,21.52
2017-08-25T21:29:29.459Z,21.54
2017-08-25T21:31:58.547Z,21.53
2017-08-25T21:34:27.612Z,21.54
2017-08-25T21:36:56.682Z,21.53
2017-08-25T21:39:25.794Z,21.50
2017-08-25T21:41:54.852Z,21.50
2017-08-25T21:44:23.924Z,21.47
2017-08-25T21:46:52.969Z,21.40
2017-08-25T21:49:22.069Z,21.42
2017-08-25T21:51:51.126Z,21.39
2017-08-25T21:54:20.208Z,21.36
2017-08-25T21:56:49.259Z,21.28
2017-08-25T21:59:19.089Z,21.24
2017-08-25T22:01:48.135Z,21.22
2017-08-25T22:04:17.190Z,21.20
2017-08-25T22:06:46.271Z,21.17
2017-08-25T22:09:15.643Z,21.09
2017-08-25T22:11:44.696Z,21.03
2017-08-25T22:14:13.835Z,20.99
2017-08-25T22:16:43.139Z,20.98
2017-08-25T22:19:12.223Z,20.96
2017-08-25T22:21:41.250Z,20.93
2017-08-25T22:24:10.531Z,20.78
2017-08-25T22:26:39.629Z,20.63
2017-08-25T22:29:08.702Z,20.61
2017-08-25T22:31:37.896Z,20.50
2017-08-25T22:34:06.991Z,20.46
2017-08-25T22:36:36.031Z,20.40
2017-08-25T22:39:05.098Z,20.24
2017-08-25T22:41:34.187Z,20.19
2017-08-25T22:44:03.245Z,20.18
2017-08-25T22:46:32.325Z,20.18
2017-08-25T22:49:01.384Z,20.19
2017-08-25T22:51:30.569Z,20.25
2017-08-25T22:53:59.623Z,20.29
2017-08-25T22:56:28.668Z,20.30
2017-08-25T22:58:57.742Z,20.30
2017-08-25T23:01:26.856Z,20.36
2017-08-25T23:03:55.876Z,20.44
2017-08-25T23:06:24.956Z,20.44
2017-08-25T23:08:54.353Z,20.53
2017-08-25T23:11:23.387Z,20.58
2017-08-25T23:13:52.456Z,20.64
2017-08-25T23:16:22.276Z,20.66
2017-08-25T23:18:51.354Z,20.68
2017-08-25T23:21:20.439Z,20.73
2017-08-25T23:23:49.486Z,20.71
2017-08-25T23:26:18.568Z,20.75
2017-08-25T23:28:47.643Z,20.74
2017-08-25T23:31:16.677Z,20.78
2017-08-25T23:33:45.751Z,20.75
2017-08-25T23:36:14.812Z,20.58
2017-08-25T23:38:43.852Z,20.57
2017-08-25T23:41:12.941Z,20.62
2017-08-25T23:43:41.979Z,20.64
2017-08-25T23:46:11.105Z,20.66
2017-08-25T23:48:40.163Z,20.67
2017-08-25T23:51:09.212Z,20.68
2017-08-25T23:53:38.304Z,20.68
2017-08-25T23:56:07.368Z,20.67
2017-08-25T23:58:36.463Z,20.61
